sensor_id;sensor_type;location;lat;lon;timestamp;pressure;altitude;pressure_sealevel;temperature;humidity
14885;BME280;7534;50.762;7.000;2023-01-16T00:02:13;147614.44;;;5.41;86.70
14885;BME280;7534;50.762;7.000;2023-01-16T00:04:39;147598.81;;;5.35;86.59
14885;BME280;7534;50.762;7.000;2023-01-16T00:07:05;147610.53;;;5.40;86.46
14885;BME280;7534;50.762;7.000;2023-01-16T00:09:30;147622.22;;;5.44;86.39
14885;BME280;7534;50.762;7.000;2023-01-16T00:11:57;147600.09;;;5.35;86.29
14885;BME280;7534;50.762;7.000;2023-01-16T00:14:23;147607.91;;;5.38;86.95
14885;BME280;7534;50.762;7.000;2023-01-16T00:16:48;147579.25;;;5.27;86.76
14885;BME280;7534;50.762;7.000;2023-01-16T00:19:14;147549.31;;;5.16;87.35
14885;BME280;7534;50.762;7.000;2023-01-16T00:21:40;147533.69;;;5.10;87.37
14885;BME280;7534;50.762;7.000;2023-01-16T00:24:06;147514.19;;;5.02;87.65
14885;BME280;7534;50.762;7.000;2023-01-16T00:26:32;147495.91;;;4.95;87.78
14885;BME280;7534;50.762;7.000;2023-01-16T00:28:58;147480.28;;;4.89;87.99
14885;BME280;7534;50.762;7.000;2023-01-16T00:31:24;147458.16;;;4.80;88.22
14885;BME280;7534;50.762;7.000;2023-01-16T00:33:53;147430.84;;;4.70;88.77
14885;BME280;7534;50.762;7.000;2023-01-16T00:36:18;147433.41;;;4.71;89.81
14885;BME280;7534;50.762;7.000;2023-01-16T00:38:44;147372.25;;;4.47;91.13
14885;BME280;7534;50.762;7.000;2023-01-16T00:41:10;147343.66;;;4.36;91.30
14885;BME280;7534;50.762;7.000;2023-01-16T00:43:36;147274.66;;;4.09;92.21
14885;BME280;7534;50.762;7.000;2023-01-16T00:46:02;147268.16;;;4.06;92.94
14885;BME280;7534;50.762;7.000;2023-01-16T00:48:28;147248.63;;;3.99;93.54
14885;BME280;7534;50.762;7.000;2023-01-16T00:50:54;147231.75;;;3.92;93.99
14885;BME280;7534;50.762;7.000;2023-01-16T00:53:20;147264.28;;;4.05;94.60
14885;BME280;7534;50.762;7.000;2023-01-16T00:55:45;147312.38;;;4.23;95.01
14885;BME280;7534;50.762;7.000;2023-01-16T00:58:11;147342.34;;;4.35;95.11
14885;BME280;7534;50.762;7.000;2023-01-16T01:00:38;147377.47;;;4.49;94.73
14885;BME280;7534;50.762;7.000;2023-01-16T01:03:05;147441.25;;;4.74;94.42
14885;BME280;7534;50.762;7.000;2023-01-16T01:05:34;147453.00;;;4.78;94.36
14885;BME280;7534;50.762;7.000;2023-01-16T01:08:00;147486.81;;;4.91;94.09
14885;BME280;7534;50.762;7.000;2023-01-16T01:10:26;147541.47;;;5.13;93.92
14885;BME280;7534;50.762;7.000;2023-01-16T01:12:54;147559.72;;;5.20;93.70
14885;BME280;7534;50.762;7.000;2023-01-16T01:15:21;147554.53;;;5.18;92.88
14885;BME280;7534;50.762;7.000;2023-01-16T01:17:47;147545.41;;;5.14;93.54
14885;BME280;7534;50.762;7.000;2023-01-16T01:20:13;147591.00;;;5.32;94.16
14885;BME280;7534;50.762;7.000;2023-01-16T01:22:39;147568.84;;;5.23;94.94
14885;BME280;7534;50.762;7.000;2023-01-16T01:25:05;147605.31;;;5.37;95.85
14885;BME280;7534;50.762;7.000;2023-01-16T01:27:30;147610.53;;;5.40;95.91
14885;BME280;7534;50.762;7.000;2023-01-16T01:29:56;147583.16;;;5.29;95.98
14885;BME280;7534;50.762;7.000;2023-01-16T01:32:22;147585.78;;;5.30;96.74
14885;BME280;7534;50.762;7.000;2023-01-16T01:34:48;147600.09;;;5.35;97.78
14885;BME280;7534;50.762;7.000;2023-01-16T01:37:13;147558.41;;;5.19;98.56
14885;BME280;7534;50.762;7.000;2023-01-16T01:39:39;147562.31;;;5.21;100.00
14885;BME280;7534;50.762;7.000;2023-01-16T01:42:05;147561.00;;;5.20;100.00
14885;BME280;7534;50.762;7.000;2023-01-16T01:44:54;147601.38;;;5.36;100.00
14885;BME280;7534;50.762;7.000;2023-01-16T01:47:27;147653.53;;;5.56;100.00
14885;BME280;7534;50.762;7.000;2023-01-16T01:49:59;147636.59;;;5.50;100.00
14885;BME280;7534;50.762;7.000;2023-01-16T01:52:29;147624.84;;;5.45;100.00
14885;BME280;7534;50.762;7.000;2023-01-16T01:55:04;147687.38;;;5.69;99.84
14885;BME280;7534;50.762;7.000;2023-01-16T01:57:37;147667.84;;;5.62;99.72
14885;BME280;7534;50.762;7.000;2023-01-16T02:00:20;147652.22;;;5.56;99.79
14885;BME280;7534;50.762;7.000;2023-01-16T02:03:10;147682.19;;;5.67;100.00
14885;BME280;7534;50.762;7.000;2023-01-16T02:05:48;147654.81;;;5.57;99.56
14885;BME280;7534;50.762;7.000;2023-01-16T02:08:19;147645.69;;;5.53;100.00
14885;BME280;7534;50.762;7.000;2023-01-16T02:10:56;147667.84;;;5.62;100.00
14885;BME280;7534;50.762;7.000;2023-01-16T02:13:24;147656.13;;;5.57;100.00
14885;BME280;7534;50.762;7.000;2023-01-16T02:15:49;147653.53;;;5.56;100.00
14885;BME280;7534;50.762;7.000;2023-01-16T02:18:34;147650.91;;;5.55;100.00
14885;BME280;7534;50.762;7.000;2023-01-16T02:24:44;147648.28;;;5.54;100.00
14885;BME280;7534;50.762;7.000;2023-01-16T02:30:56;147653.53;;;5.56;100.00
14885;BME280;7534;50.762;7.000;2023-01-16T02:36:33;147644.38;;;5.53;100.00
14885;BME280;7534;50.762;7.000;2023-01-16T02:39:34;147623.53;;;5.45;100.00
14885;BME280;7534;50.762;7.000;2023-01-16T02:42:45;147610.53;;;5.40;100.00
14885;BME280;7534;50.762;7.000;2023-01-16T02:45:49;147563.63;;;5.21;100.00
14885;BME280;7534;50.762;7.000;2023-01-16T02:48:28;147494.66;;;4.94;100.00
14885;BME280;7534;50.762;7.000;2023-01-16T02:54:33;147458.16;;;4.80;100.00
14885;BME280;7534;50.762;7.000;2023-01-16T02:57:13;147403.50;;;4.59;100.00
14885;BME280;7534;50.762;7.000;2023-01-16T02:59:41;147344.94;;;4.36;100.00
14885;BME280;7534;50.762;7.000;2023-01-16T03:02:08;147321.53;;;4.27;100.00
14885;BME280;7534;50.762;7.000;2023-01-16T03:04:48;147277.28;;;4.10;100.00
14885;BME280;7534;50.762;7.000;2023-01-16T03:07:49;147278.59;;;4.10;100.00
14885;BME280;7534;50.762;7.000;2023-01-16T03:11:03;147242.16;;;3.96;100.00
14885;BME280;7534;50.762;7.000;2023-01-16T03:22:57;147101.69;;;3.41;100.00
14885;BME280;7534;50.762;7.000;2023-01-16T03:25:35;147130.31;;;3.53;100.00
14885;BME280;7534;50.762;7.000;2023-01-16T03:31:18;147077.03;;;3.32;100.00
14885;BME280;7534;50.762;7.000;2023-01-16T03:37:00;147134.22;;;3.54;100.00
14885;BME280;7534;50.762;7.000;2023-01-16T03:39:40;147145.91;;;3.59;100.00
14885;BME280;7534;50.762;7.000;2023-01-16T03:42:21;147188.81;;;3.75;100.00
14885;BME280;7534;50.762;7.000;2023-01-16T03:44:57;147197.94;;;3.79;100.00
14885;BME280;7534;50.762;7.000;2023-01-16T03:47:40;147231.75;;;3.92;100.00
14885;BME280;7534;50.762;7.000;2023-01-16T03:50:10;147213.53;;;3.85;100.00
14885;BME280;7534;50.762;7.000;2023-01-16T03:52:45;147264.28;;;4.05;100.00
14885;BME280;7534;50.762;7.000;2023-01-16T03:55:38;147239.56;;;3.95;100.00
14885;BME280;7534;50.762;7.000;2023-01-16T03:58:28;147242.16;;;3.96;100.00
14885;BME280;7534;50.762;7.000;2023-01-16T04:01:27;147244.78;;;3.97;100.00
14885;BME280;7534;50.762;7.000;2023-01-16T04:04:02;147282.50;;;4.12;100.00
14885;BME280;7534;50.762;7.000;2023-01-16T04:06:45;147309.78;;;4.22;100.00
14885;BME280;7534;50.762;7.000;2023-01-16T04:09:38;147334.50;;;4.32;100.00
14885;BME280;7534;50.762;7.000;2023-01-16T04:12:07;147324.13;;;4.28;100.00
14885;BME280;7534;50.762;7.000;2023-01-16T04:14:35;147308.47;;;4.22;100.00
14885;BME280;7534;50.762;7.000;2023-01-16T04:17:04;147291.56;;;4.15;100.00
14885;BME280;7534;50.762;7.000;2023-01-16T04:19:32;147292.88;;;4.16;100.00
14885;BME280;7534;50.762;7.000;2023-01-16T04:21:58;147290.25;;;4.15;100.00
14885;BME280;7534;50.762;7.000;2023-01-16T04:24:24;147282.50;;;4.12;100.00
14885;BME280;7534;50.762;7.000;2023-01-16T04:26:50;147281.19;;;4.11;100.00
14885;BME280;7534;50.762;7.000;2023-01-16T04:29:17;147287.66;;;4.14;100.00
14885;BME280;7534;50.762;7.000;2023-01-16T04:31:43;147279.88;;;4.11;100.00
14885;BME280;7534;50.762;7.000;2023-01-16T04:34:09;147238.25;;;3.95;100.00
14885;BME280;7534;50.762;7.000;2023-01-16T04:36:34;147227.81;;;3.91;100.00
14885;BME280;7534;50.762;7.000;2023-01-16T04:39:00;147220.06;;;3.88;100.00
14885;BME280;7534;50.762;7.000;2023-01-16T04:41:26;147190.13;;;3.76;100.00
14885;BME280;7534;50.762;7.000;2023-01-16T04:44:07;147273.38;;;4.08;100.00
14885;BME280;7534;50.762;7.000;2023-01-16T04:46:34;147253.84;;;4.01;100.00
14885;BME280;7534;50.762;7.000;2023-01-16T04:49:00;147252.53;;;4.00;100.00
14885;BME280;7534;50.762;7.000;2023-01-16T04:51:26;147261.69;;;4.04;100.00
14885;BME280;7534;50.762;7.000;2023-01-16T04:53:52;147270.75;;;4.07;100.00
14885;BME280;7534;50.762;7.000;2023-01-16T04:56:19;147238.25;;;3.95;100.00
14885;BME280;7534;50.762;7.000;2023-01-16T04:58:45;147188.81;;;3.75;100.00
14885;BME280;7534;50.762;7.000;2023-01-16T05:01:11;147209.63;;;3.83;100.00
14885;BME280;7534;50.762;7.000;2023-01-16T05:03:36;147239.56;;;3.95;100.00
14885;BME280;7534;50.762;7.000;2023-01-16T05:06:02;147307.22;;;4.21;100.00
14885;BME280;7534;50.762;7.000;2023-01-16T05:08:28;147312.38;;;4.23;100.00
14885;BME280;7534;50.762;7.000;2023-01-16T05:10:54;147312.38;;;4.23;100.00
14885;BME280;7534;50.762;7.000;2023-01-16T05:13:21;147337.13;;;4.33;100.00
14885;BME280;7534;50.762;7.000;2023-01-16T05:15:47;147312.38;;;4.23;100.00
14885;BME280;7534;50.762;7.000;2023-01-16T05:18:13;147380.06;;;4.50;100.00
14885;BME280;7534;50.762;7.000;2023-01-16T05:20:40;147404.81;;;4.59;100.00
14885;BME280;7534;50.762;7.000;2023-01-16T05:23:05;147423.03;;;4.67;100.00
14885;BME280;7534;50.762;7.000;2023-01-16T05:25:31;147469.91;;;4.85;100.00
14885;BME280;7534;50.762;7.000;2023-01-16T05:27:57;147502.44;;;4.97;100.00
14885;BME280;7534;50.762;7.000;2023-01-16T05:30:23;147514.19;;;5.02;100.00
14885;BME280;7534;50.762;7.000;2023-01-16T05:32:49;147485.50;;;4.91;100.00
14885;BME280;7534;50.762;7.000;2023-01-16T05:35:15;147463.38;;;4.82;100.00
14885;BME280;7534;50.762;7.000;2023-01-16T05:37:42;147417.81;;;4.65;100.00
14885;BME280;7534;50.762;7.000;2023-01-16T05:40:09;147442.53;;;4.74;100.00
14885;BME280;7534;50.762;7.000;2023-01-16T05:42:36;147406.13;;;4.60;100.00
14885;BME280;7534;50.762;7.000;2023-01-16T05:45:02;147464.69;;;4.83;100.00
14885;BME280;7534;50.762;7.000;2023-01-16T05:47:28;147469.91;;;4.85;100.00
14885;BME280;7534;50.762;7.000;2023-01-16T05:49:54;147473.81;;;4.86;100.00
14885;BME280;7534;50.762;7.000;2023-01-16T05:52:24;147471.22;;;4.85;100.00
14885;BME280;7534;50.762;7.000;2023-01-16T05:54:52;147514.19;;;5.02;100.00
14885;BME280;7534;50.762;7.000;2023-01-16T05:57:18;147512.88;;;5.02;100.00
14885;BME280;7534;50.762;7.000;2023-01-16T05:59:47;147546.72;;;5.15;100.00
14885;BME280;7534;50.762;7.000;2023-01-16T06:02:13;147549.31;;;5.16;100.00
14885;BME280;7534;50.762;7.000;2023-01-16T06:04:39;147583.16;;;5.29;100.00
14885;BME280;7534;50.762;7.000;2023-01-16T06:07:05;147609.22;;;5.39;100.00
14885;BME280;7534;50.762;7.000;2023-01-16T06:09:30;147639.19;;;5.51;100.00
14885;BME280;7534;50.762;7.000;2023-01-16T06:11:56;147580.53;;;5.28;100.00
14885;BME280;7534;50.762;7.000;2023-01-16T06:14:22;147541.47;;;5.13;100.00
14885;BME280;7534;50.762;7.000;2023-01-16T06:16:48;147581.84;;;5.28;100.00
14885;BME280;7534;50.762;7.000;2023-01-16T06:19:13;147555.84;;;5.18;100.00
14885;BME280;7534;50.762;7.000;2023-01-16T06:21:39;147505.03;;;4.98;100.00
14885;BME280;7534;50.762;7.000;2023-01-16T06:24:05;147532.41;;;5.09;100.00
14885;BME280;7534;50.762;7.000;2023-01-16T06:26:31;147553.22;;;5.17;100.00
14885;BME280;7534;50.762;7.000;2023-01-16T06:28:57;147544.09;;;5.14;100.00
14885;BME280;7534;50.762;7.000;2023-01-16T06:31:23;147574.06;;;5.25;100.00
14885;BME280;7534;50.762;7.000;2023-01-16T06:33:49;147588.38;;;5.31;100.00
14885;BME280;7534;50.762;7.000;2023-01-16T06:36:15;147583.16;;;5.29;100.00
14885;BME280;7534;50.762;7.000;2023-01-16T06:38:41;147570.16;;;5.24;100.00
14885;BME280;7534;50.762;7.000;2023-01-16T06:41:07;147598.81;;;5.35;100.00
14885;BME280;7534;50.762;7.000;2023-01-16T06:43:33;147607.91;;;5.38;100.00
14885;BME280;7534;50.762;7.000;2023-01-16T06:45:59;147610.53;;;5.40;100.00
14885;BME280;7534;50.762;7.000;2023-01-16T06:48:24;147597.53;;;5.34;99.13
14885;BME280;7534;50.762;7.000;2023-01-16T06:50:52;147594.91;;;5.33;98.88
14885;BME280;7534;50.762;7.000;2023-01-16T06:53:19;147613.13;;;5.41;98.10
14885;BME280;7534;50.762;7.000;2023-01-16T06:55:45;147627.44;;;5.46;98.06
14885;BME280;7534;50.762;7.000;2023-01-16T06:58:11;147601.38;;;5.36;95.85
14885;BME280;7534;50.762;7.000;2023-01-16T07:00:37;147643.06;;;5.52;95.52
14885;BME280;7534;50.762;7.000;2023-01-16T07:03:04;147661.34;;;5.59;95.35
14885;BME280;7534;50.762;7.000;2023-01-16T07:05:31;147657.44;;;5.58;95.10
14885;BME280;7534;50.762;7.000;2023-01-16T07:07:58;147665.22;;;5.61;94.71
14885;BME280;7534;50.762;7.000;2023-01-16T07:10:24;147647.00;;;5.54;94.21
14885;BME280;7534;50.762;7.000;2023-01-16T07:12:51;147662.59;;;5.60;93.73
14885;BME280;7534;50.762;7.000;2023-01-16T07:15:18;147662.59;;;5.60;93.33
14885;BME280;7534;50.762;7.000;2023-01-16T07:18:03;147669.13;;;5.62;92.67
14885;BME280;7534;50.762;7.000;2023-01-16T07:20:55;147661.34;;;5.59;92.89
14885;BME280;7534;50.762;7.000;2023-01-16T07:23:47;147656.13;;;5.57;93.58
14885;BME280;7534;50.762;7.000;2023-01-16T07:26:15;147653.53;;;5.56;93.59
14885;BME280;7534;50.762;7.000;2023-01-16T07:28:46;147614.44;;;5.41;94.33
14885;BME280;7534;50.762;7.000;2023-01-16T07:31:13;147620.91;;;5.44;94.80
14885;BME280;7534;50.762;7.000;2023-01-16T07:33:39;147594.91;;;5.33;95.97
14885;BME280;7534;50.762;7.000;2023-01-16T07:36:05;147619.66;;;5.43;95.60
14885;BME280;7534;50.762;7.000;2023-01-16T07:38:30;147596.22;;;5.34;96.07
14885;BME280;7534;50.762;7.000;2023-01-16T07:40:56;147583.16;;;5.29;96.65
14885;BME280;7534;50.762;7.000;2023-01-16T07:43:22;147597.53;;;5.34;97.84
14885;BME280;7534;50.762;7.000;2023-01-16T07:45:48;147558.41;;;5.19;98.05
14885;BME280;7534;50.762;7.000;2023-01-16T07:48:19;147577.97;;;5.27;99.38
14885;BME280;7534;50.762;7.000;2023-01-16T07:50:54;147533.69;;;5.10;100.00
14885;BME280;7534;50.762;7.000;2023-01-16T07:53:22;147541.47;;;5.13;100.00
14885;BME280;7534;50.762;7.000;2023-01-16T07:55:55;147548.00;;;5.15;100.00
14885;BME280;7534;50.762;7.000;2023-01-16T07:58:21;147523.25;;;5.06;100.00
14885;BME280;7534;50.762;7.000;2023-01-16T08:00:47;147488.13;;;4.92;100.00
14885;BME280;7534;50.762;7.000;2023-01-16T08:03:15;147499.81;;;4.96;100.00
14885;BME280;7534;50.762;7.000;2023-01-16T08:05:41;147498.50;;;4.96;100.00
14885;BME280;7534;50.762;7.000;2023-01-16T08:08:12;147499.81;;;4.96;100.00
14885;BME280;7534;50.762;7.000;2023-01-16T08:10:38;147495.91;;;4.95;100.00
14885;BME280;7534;50.762;7.000;2023-01-16T08:13:05;147495.91;;;4.95;100.00
14885;BME280;7534;50.762;7.000;2023-01-16T08:15:31;147460.75;;;4.81;100.00
14885;BME280;7534;50.762;7.000;2023-01-16T08:17:57;147477.69;;;4.88;100.00
14885;BME280;7534;50.762;7.000;2023-01-16T08:20:23;147473.81;;;4.86;100.00
14885;BME280;7534;50.762;7.000;2023-01-16T08:22:51;147459.47;;;4.81;100.00
14885;BME280;7534;50.762;7.000;2023-01-16T08:25:22;147486.81;;;4.91;100.00
14885;BME280;7534;50.762;7.000;2023-01-16T08:27:48;147432.16;;;4.70;100.00
14885;BME280;7534;50.762;7.000;2023-01-16T08:30:15;147459.47;;;4.81;100.00
14885;BME280;7534;50.762;7.000;2023-01-16T08:32:42;147446.47;;;4.76;100.00
14885;BME280;7534;50.762;7.000;2023-01-16T08:35:09;147451.69;;;4.78;100.00
14885;BME280;7534;50.762;7.000;2023-01-16T08:37:35;147421.72;;;4.66;100.00
14885;BME280;7534;50.762;7.000;2023-01-16T08:40:01;147416.50;;;4.64;100.00
14885;BME280;7534;50.762;7.000;2023-01-16T08:42:29;147424.31;;;4.67;100.00
14885;BME280;7534;50.762;7.000;2023-01-16T08:45:13;147425.63;;;4.68;100.00
14885;BME280;7534;50.762;7.000;2023-01-16T08:47:59;147436.03;;;4.72;100.00
14885;BME280;7534;50.762;7.000;2023-01-16T08:50:46;147429.53;;;4.69;100.00
14885;BME280;7534;50.762;7.000;2023-01-16T08:53:32;147416.50;;;4.64;100.00
14885;BME280;7534;50.762;7.000;2023-01-16T08:55:58;147454.25;;;4.79;100.00
14885;BME280;7534;50.762;7.000;2023-01-16T08:58:24;147439.94;;;4.73;100.00
14885;BME280;7534;50.762;7.000;2023-01-16T09:00:50;147413.88;;;4.63;100.00
14885;BME280;7534;50.762;7.000;2023-01-16T09:03:16;147403.50;;;4.59;100.00
14885;BME280;7534;50.762;7.000;2023-01-16T09:05:45;147381.38;;;4.50;100.00
14885;BME280;7534;50.762;7.000;2023-01-16T09:08:10;147398.28;;;4.57;100.00
14885;BME280;7534;50.762;7.000;2023-01-16T09:10:36;147429.53;;;4.69;100.00
14885;BME280;7534;50.762;7.000;2023-01-16T09:13:03;147460.75;;;4.81;100.00
14885;BME280;7534;50.762;7.000;2023-01-16T09:15:48;147451.69;;;4.78;100.00
14885;BME280;7534;50.762;7.000;2023-01-16T09:18:14;147407.41;;;4.60;100.00
14885;BME280;7534;50.762;7.000;2023-01-16T09:20:39;147428.25;;;4.69;100.00
14885;BME280;7534;50.762;7.000;2023-01-16T09:23:05;147475.06;;;4.87;100.00
14885;BME280;7534;50.762;7.000;2023-01-16T09:25:33;147516.72;;;5.03;100.00
14885;BME280;7534;50.762;7.000;2023-01-16T09:27:59;147510.25;;;5.01;100.00
14885;BME280;7534;50.762;7.000;2023-01-16T09:30:27;147441.25;;;4.74;100.00
14885;BME280;7534;50.762;7.000;2023-01-16T09:32:53;147498.50;;;4.96;100.00
14885;BME280;7534;50.762;7.000;2023-01-16T09:35:19;147528.47;;;5.08;100.00
14885;BME280;7534;50.762;7.000;2023-01-16T09:37:46;147544.09;;;5.14;100.00
14885;BME280;7534;50.762;7.000;2023-01-16T09:40:20;147505.03;;;4.98;100.00
14885;BME280;7534;50.762;7.000;2023-01-16T09:43:35;147481.59;;;4.89;100.00
14885;BME280;7534;50.762;7.000;2023-01-16T09:46:19;147512.88;;;5.02;100.00
14885;BME280;7534;50.762;7.000;2023-01-16T09:49:07;147527.19;;;5.07;100.00
14885;BME280;7534;50.762;7.000;2023-01-16T09:51:46;147523.25;;;5.06;100.00
14885;BME280;7534;50.762;7.000;2023-01-16T09:54:47;147583.16;;;5.29;100.00
14885;BME280;7534;50.762;7.000;2023-01-16T09:57:36;147601.38;;;5.36;100.00
14885;BME280;7534;50.762;7.000;2023-01-16T10:00:30;147602.69;;;5.36;100.00
14885;BME280;7534;50.762;7.000;2023-01-16T10:02:56;147546.72;;;5.15;100.00
14885;BME280;7534;50.762;7.000;2023-01-16T10:05:28;147585.78;;;5.30;100.00
14885;BME280;7534;50.762;7.000;2023-01-16T10:08:30;147627.44;;;5.46;100.00
14885;BME280;7534;50.762;7.000;2023-01-16T10:11:43;147633.97;;;5.49;100.00
14885;BME280;7534;50.762;7.000;2023-01-16T10:15:09;147643.06;;;5.52;99.75
14885;BME280;7534;50.762;7.000;2023-01-16T10:20:54;147673.06;;;5.64;99.29
14885;BME280;7534;50.762;7.000;2023-01-16T10:26:59;147749.97;;;5.94;98.82
14885;BME280;7534;50.762;7.000;2023-01-16T10:29:44;147716.06;;;5.81;96.99
14885;BME280;7534;50.762;7.000;2023-01-16T10:32:26;147740.88;;;5.90;96.65
14885;BME280;7534;50.762;7.000;2023-01-16T10:35:06;147747.34;;;5.93;96.50
14885;BME280;7534;50.762;7.000;2023-01-16T10:37:39;147736.97;;;5.89;96.54
14885;BME280;7534;50.762;7.000;2023-01-16T10:40:36;147740.88;;;5.90;96.11
14885;BME280;7534;50.762;7.000;2023-01-16T10:43:35;147731.69;;;5.87;95.57
14885;BME280;7534;50.762;7.000;2023-01-16T10:46:22;147738.25;;;5.89;95.49
14885;BME280;7534;50.762;7.000;2023-01-16T10:49:15;147768.22;;;6.01;95.52
14885;BME280;7534;50.762;7.000;2023-01-16T10:51:58;147802.13;;;6.14;95.52
14885;BME280;7534;50.762;7.000;2023-01-16T10:54:27;147839.91;;;6.29;93.74
14885;BME280;7534;50.762;7.000;2023-01-16T10:56:53;147812.53;;;6.18;93.81
14885;BME280;7534;50.762;7.000;2023-01-16T10:59:20;147817.75;;;6.20;94.05
14885;BME280;7534;50.762;7.000;2023-01-16T11:01:47;147798.22;;;6.12;94.30
14885;BME280;7534;50.762;7.000;2023-01-16T11:04:19;147766.91;;;6.00;93.98
14885;BME280;7534;50.762;7.000;2023-01-16T11:06:45;147821.69;;;6.22;94.15
14885;BME280;7534;50.762;7.000;2023-01-16T11:11:40;147833.38;;;6.26;93.14
14885;BME280;7534;50.762;7.000;2023-01-16T11:14:39;147879.03;;;6.44;93.18
14885;BME280;7534;50.762;7.000;2023-01-16T11:17:29;147940.31;;;6.68;93.48
14885;BME280;7534;50.762;7.000;2023-01-16T11:20:25;147975.50;;;6.81;89.99
14885;BME280;7534;50.762;7.000;2023-01-16T11:22:58;148001.59;;;6.92;89.97
14885;BME280;7534;50.762;7.000;2023-01-16T11:25:27;147991.19;;;6.87;89.12
14885;BME280;7534;50.762;7.000;2023-01-16T11:27:57;147991.19;;;6.87;89.16
14885;BME280;7534;50.762;7.000;2023-01-16T11:30:40;148036.84;;;7.05;88.58
14885;BME280;7534;50.762;7.000;2023-01-16T11:33:19;148060.28;;;7.14;87.65
14885;BME280;7534;50.762;7.000;2023-01-16T11:35:54;148085.09;;;7.24;87.87
14885;BME280;7534;50.762;7.000;2023-01-16T11:38:23;148099.50;;;7.30;86.65
14885;BME280;7534;50.762;7.000;2023-01-16T11:40:50;148109.91;;;7.34;86.11
14885;BME280;7534;50.762;7.000;2023-01-16T11:43:28;148107.28;;;7.33;85.64
14885;BME280;7534;50.762;7.000;2023-01-16T11:46:37;148146.44;;;7.48;85.58
14885;BME280;7534;50.762;7.000;2023-01-16T11:49:18;148128.16;;;7.41;85.12
14885;BME280;7534;50.762;7.000;2023-01-16T11:51:52;148062.91;;;7.15;85.97
14885;BME280;7534;50.762;7.000;2023-01-16T11:54:26;148001.59;;;6.92;87.34
14885;BME280;7534;50.762;7.000;2023-01-16T12:00:18;147914.22;;;6.58;88.58
14885;BME280;7534;50.762;7.000;2023-01-16T12:09:34;147820.38;;;6.21;95.41
14885;BME280;7534;50.762;7.000;2023-01-16T12:12:35;147752.59;;;5.95;97.79
14885;BME280;7534;50.762;7.000;2023-01-16T12:15:37;147752.59;;;5.95;99.80
14885;BME280;7534;50.762;7.000;2023-01-16T12:21:43;147734.34;;;5.88;100.00
14885;BME280;7534;50.762;7.000;2023-01-16T12:24:43;147726.47;;;5.85;100.00
14885;BME280;7534;50.762;7.000;2023-01-16T12:28:01;147759.13;;;5.97;100.00
14885;BME280;7534;50.762;7.000;2023-01-16T12:30:49;147806.03;;;6.16;100.00
14885;BME280;7534;50.762;7.000;2023-01-16T12:33:54;147838.63;;;6.28;100.00
14885;BME280;7534;50.762;7.000;2023-01-16T12:45:51;147781.28;;;6.06;100.00
14885;BME280;7534;50.762;7.000;2023-01-16T12:57:34;147714.75;;;5.80;100.00
14885;BME280;7534;50.762;7.000;2023-01-16T13:00:15;147763.03;;;5.99;100.00
14885;BME280;7534;50.762;7.000;2023-01-16T13:02:56;147769.53;;;6.01;100.00
14885;BME280;7534;50.762;7.000;2023-01-16T13:05:28;147776.03;;;6.04;100.00
14885;BME280;7534;50.762;7.000;2023-01-16T13:08:03;147735.66;;;5.88;100.00
14885;BME280;7534;50.762;7.000;2023-01-16T13:10:37;147774.75;;;6.03;100.00
14885;BME280;7534;50.762;7.000;2023-01-16T13:13:29;147774.75;;;6.03;100.00
14885;BME280;7534;50.762;7.000;2023-01-16T13:19:11;147760.41;;;5.98;100.00
14885;BME280;7534;50.762;7.000;2023-01-16T13:22:02;147748.66;;;5.93;100.00
14885;BME280;7534;50.762;7.000;2023-01-16T13:24:38;147748.66;;;5.93;100.00
14885;BME280;7534;50.762;7.000;2023-01-16T13:27:15;147736.97;;;5.89;100.00
14885;BME280;7534;50.762;7.000;2023-01-16T13:29:59;147726.47;;;5.85;100.00
14885;BME280;7534;50.762;7.000;2023-01-16T13:32:36;147697.81;;;5.73;100.00
14885;BME280;7534;50.762;7.000;2023-01-16T13:35:45;147725.16;;;5.84;100.00
14885;BME280;7534;50.762;7.000;2023-01-16T13:38:32;147713.44;;;5.80;100.00
14885;BME280;7534;50.762;7.000;2023-01-16T13:41:23;147706.91;;;5.77;100.00
14885;BME280;7534;50.762;7.000;2023-01-16T13:44:16;147733.00;;;5.87;100.00
14885;BME280;7534;50.762;7.000;2023-01-16T13:47:07;147739.56;;;5.90;100.00
14885;BME280;7534;50.762;7.000;2023-01-16T13:49:34;147712.13;;;5.79;100.00
14885;BME280;7534;50.762;7.000;2023-01-16T13:52:03;147790.38;;;6.09;100.00
14885;BME280;7534;50.762;7.000;2023-01-16T13:54:42;147803.44;;;6.15;100.00
14885;BME280;7534;50.762;7.000;2023-01-16T13:57:21;147808.59;;;6.17;100.00
14885;BME280;7534;50.762;7.000;2023-01-16T13:59:54;147807.34;;;6.16;100.00
14885;BME280;7534;50.762;7.000;2023-01-16T14:10:45;147813.84;;;6.19;100.00
14885;BME280;7534;50.762;7.000;2023-01-16T14:13:35;147851.63;;;6.33;100.00
14885;BME280;7534;50.762;7.000;2023-01-16T14:16:33;147821.69;;;6.22;99.63
14885;BME280;7534;50.762;7.000;2023-01-16T14:19:21;147832.06;;;6.26;99.94
14885;BME280;7534;50.762;7.000;2023-01-16T14:21:48;147859.47;;;6.36;99.93
14885;BME280;7534;50.762;7.000;2023-01-16T14:24:46;147863.41;;;6.38;99.58
14885;BME280;7534;50.762;7.000;2023-01-16T14:27:19;147868.63;;;6.40;99.25
14885;BME280;7534;50.762;7.000;2023-01-16T14:29:52;147876.41;;;6.43;99.34
14885;BME280;7534;50.762;7.000;2023-01-16T14:32:27;147893.34;;;6.49;98.72
14885;BME280;7534;50.762;7.000;2023-01-16T14:35:04;147838.63;;;6.28;98.60
14885;BME280;7534;50.762;7.000;2023-01-16T14:37:51;147834.69;;;6.27;98.96
14885;BME280;7534;50.762;7.000;2023-01-16T14:40:23;147851.63;;;6.33;98.84
14885;BME280;7534;50.762;7.000;2023-01-16T14:43:26;147846.44;;;6.31;99.56
14885;BME280;7534;50.762;7.000;2023-01-16T14:46:28;147828.22;;;6.24;99.60
14885;BME280;7534;50.762;7.000;2023-01-16T14:49:57;147807.34;;;6.16;100.00
14885;BME280;7534;50.762;7.000;2023-01-16T14:58:50;147739.56;;;5.90;100.00
14885;BME280;7534;50.762;7.000;2023-01-16T15:01:26;147777.34;;;6.04;100.00
14885;BME280;7534;50.762;7.000;2023-01-16T15:04:15;147765.66;;;6.00;100.00
14885;BME280;7534;50.762;7.000;2023-01-16T15:06:48;147749.97;;;5.94;100.00
14885;BME280;7534;50.762;7.000;2023-01-16T15:09:19;147730.38;;;5.86;100.00
14885;BME280;7534;50.762;7.000;2023-01-16T15:11:57;147742.19;;;5.91;100.00